» Metar & Tafor

24 November 2019
METAR
Pukul :
Isi :

METAR WAGI 222300Z 00000KT 6000 SCT012 24/23 Q1011 NOSIG=


10 Juni 2019
TAFOR
Pukul : 06 - 18 UTC
Isi :

TAF WAGI 220500Z 2206/2218 33005KT 4000 -RA BKN011 TEMPO 2206/2210 24007KT 2500 -TSRA FEW010CB=


Hal: << First | < Prev | 1 | Next > | Last >>